sensor_id;sensor_type;location;lat;lon;timestamp;temperature;humidity
546;DHT22;259;53.304;9.816;2023-06-26T00:00:40;25.50;87.50
546;DHT22;259;53.304;9.816;2023-06-26T00:03:06;25.50;87.40
546;DHT22;259;53.304;9.816;2023-06-26T00:05:32;25.50;87.40
546;DHT22;259;53.304;9.816;2023-06-26T00:07:58;25.50;87.60
546;DHT22;259;53.304;9.816;2023-06-26T00:10:26;25.50;87.60
546;DHT22;259;53.304;9.816;2023-06-26T00:12:53;25.50;87.50
546;DHT22;259;53.304;9.816;2023-06-26T00:15:19;25.50;87.40
546;DHT22;259;53.304;9.816;2023-06-26T00:17:44;25.50;87.40
546;DHT22;259;53.304;9.816;2023-06-26T00:20:10;25.50;87.40
546;DHT22;259;53.304;9.816;2023-06-26T00:22:36;25.50;87.30
546;DHT22;259;53.304;9.816;2023-06-26T00:25:06;25.50;87.20
546;DHT22;259;53.304;9.816;2023-06-26T00:27:32;25.40;87.80
546;DHT22;259;53.304;9.816;2023-06-26T00:29:58;25.40;87.00
546;DHT22;259;53.304;9.816;2023-06-26T00:32:24;25.40;87.00
546;DHT22;259;53.304;9.816;2023-06-26T00:34:50;25.40;86.90
546;DHT22;259;53.304;9.816;2023-06-26T00:37:15;25.40;86.90
546;DHT22;259;53.304;9.816;2023-06-26T00:39:41;25.40;86.90
546;DHT22;259;53.304;9.816;2023-06-26T00:42:07;25.30;86.80
546;DHT22;259;53.304;9.816;2023-06-26T00:44:33;25.30;86.90
546;DHT22;259;53.304;9.816;2023-06-26T00:46:59;25.30;86.80
546;DHT22;259;53.304;9.816;2023-06-26T00:49:26;25.30;86.90
546;DHT22;259;53.304;9.816;2023-06-26T00:51:51;25.30;86.90
546;DHT22;259;53.304;9.816;2023-06-26T00:54:18;25.30;86.90
546;DHT22;259;53.304;9.816;2023-06-26T00:56:46;25.30;86.90
546;DHT22;259;53.304;9.816;2023-06-26T00:59:13;25.30;87.00
546;DHT22;259;53.304;9.816;2023-06-26T01:01:39;25.20;87.80
546;DHT22;259;53.304;9.816;2023-06-26T01:04:04;25.20;87.00
546;DHT22;259;53.304;9.816;2023-06-26T01:06:32;25.30;87.00
546;DHT22;259;53.304;9.816;2023-06-26T01:09:01;25.20;86.90
546;DHT22;259;53.304;9.816;2023-06-26T01:11:28;25.20;86.80
546;DHT22;259;53.304;9.816;2023-06-26T01:13:54;25.20;86.80
546;DHT22;259;53.304;9.816;2023-06-26T01:16:23;25.20;86.80
546;DHT22;259;53.304;9.816;2023-06-26T01:18:49;25.20;86.70
546;DHT22;259;53.304;9.816;2023-06-26T01:21:15;25.20;86.80
546;DHT22;259;53.304;9.816;2023-06-26T01:26:23;25.10;86.80
546;DHT22;259;53.304;9.816;2023-06-26T01:28:53;25.10;86.80
546;DHT22;259;53.304;9.816;2023-06-26T01:31:19;25.10;86.90
546;DHT22;259;53.304;9.816;2023-06-26T01:33:46;25.10;87.00
546;DHT22;259;53.304;9.816;2023-06-26T01:36:12;25.10;87.00
546;DHT22;259;53.304;9.816;2023-06-26T01:38:41;25.00;86.90
546;DHT22;259;53.304;9.816;2023-06-26T01:41:07;25.00;86.80
546;DHT22;259;53.304;9.816;2023-06-26T01:43:59;25.00;86.90
546;DHT22;259;53.304;9.816;2023-06-26T01:46:57;25.00;86.80
546;DHT22;259;53.304;9.816;2023-06-26T01:49:42;25.00;86.90
546;DHT22;259;53.304;9.816;2023-06-26T01:52:20;25.00;86.90
546;DHT22;259;53.304;9.816;2023-06-26T01:57:18;25.00;86.80
546;DHT22;259;53.304;9.816;2023-06-26T01:59:46;25.00;86.60
546;DHT22;259;53.304;9.816;2023-06-26T02:02:13;25.00;86.70
546;DHT22;259;53.304;9.816;2023-06-26T02:04:39;25.00;86.70
546;DHT22;259;53.304;9.816;2023-06-26T02:07:05;25.00;86.80
546;DHT22;259;53.304;9.816;2023-06-26T02:09:31;24.90;86.70
546;DHT22;259;53.304;9.816;2023-06-26T02:11:56;24.90;86.80
546;DHT22;259;53.304;9.816;2023-06-26T02:14:22;24.90;86.90
546;DHT22;259;53.304;9.816;2023-06-26T02:16:48;24.90;86.90
546;DHT22;259;53.304;9.816;2023-06-26T02:19:13;24.90;87.00
546;DHT22;259;53.304;9.816;2023-06-26T02:21:49;24.80;87.00
546;DHT22;259;53.304;9.816;2023-06-26T02:24:15;24.80;87.00
546;DHT22;259;53.304;9.816;2023-06-26T02:26:41;24.80;87.10
546;DHT22;259;53.304;9.816;2023-06-26T02:29:06;24.80;87.00
546;DHT22;259;53.304;9.816;2023-06-26T02:31:32;24.80;87.10
546;DHT22;259;53.304;9.816;2023-06-26T02:33:58;24.80;87.00
546;DHT22;259;53.304;9.816;2023-06-26T02:36:23;24.80;87.00
546;DHT22;259;53.304;9.816;2023-06-26T02:38:49;24.80;87.00
546;DHT22;259;53.304;9.816;2023-06-26T02:41:15;24.70;86.90
546;DHT22;259;53.304;9.816;2023-06-26T02:43:40;24.80;87.00
546;DHT22;259;53.304;9.816;2023-06-26T02:46:06;24.80;86.90
546;DHT22;259;53.304;9.816;2023-06-26T02:48:32;24.80;86.80
546;DHT22;259;53.304;9.816;2023-06-26T02:50:59;24.70;86.60
546;DHT22;259;53.304;9.816;2023-06-26T02:53:24;24.70;86.70
546;DHT22;259;53.304;9.816;2023-06-26T02:55:50;24.70;86.60
546;DHT22;259;53.304;9.816;2023-06-26T02:58:16;24.70;86.70
546;DHT22;259;53.304;9.816;2023-06-26T03:00:41;24.70;86.80
546;DHT22;259;53.304;9.816;2023-06-26T03:03:08;24.70;86.90
546;DHT22;259;53.304;9.816;2023-06-26T03:05:34;24.60;86.80
546;DHT22;259;53.304;9.816;2023-06-26T03:08:01;24.60;86.90
546;DHT22;259;53.304;9.816;2023-06-26T03:10:28;24.60;87.00
546;DHT22;259;53.304;9.816;2023-06-26T03:12:53;24.60;87.00
546;DHT22;259;53.304;9.816;2023-06-26T03:15:19;24.60;87.10
546;DHT22;259;53.304;9.816;2023-06-26T03:17:45;24.60;87.10
546;DHT22;259;53.304;9.816;2023-06-26T03:20:11;24.60;87.10
546;DHT22;259;53.304;9.816;2023-06-26T03:22:36;24.50;87.00
546;DHT22;259;53.304;9.816;2023-06-26T03:25:03;24.50;87.00
546;DHT22;259;53.304;9.816;2023-06-26T03:27:28;24.50;87.00
546;DHT22;259;53.304;9.816;2023-06-26T03:29:54;24.50;87.10
546;DHT22;259;53.304;9.816;2023-06-26T03:32:20;24.50;87.10
546;DHT22;259;53.304;9.816;2023-06-26T03:34:45;24.50;87.00
546;DHT22;259;53.304;9.816;2023-06-26T03:37:11;24.50;87.00
546;DHT22;259;53.304;9.816;2023-06-26T03:39:37;24.40;86.90
546;DHT22;259;53.304;9.816;2023-06-26T03:42:03;24.40;86.90
546;DHT22;259;53.304;9.816;2023-06-26T03:44:28;24.40;86.80
546;DHT22;259;53.304;9.816;2023-06-26T03:46:54;24.50;86.90
546;DHT22;259;53.304;9.816;2023-06-26T03:49:20;24.40;86.80
546;DHT22;259;53.304;9.816;2023-06-26T03:51:46;24.40;86.80
546;DHT22;259;53.304;9.816;2023-06-26T03:54:11;24.40;86.80
546;DHT22;259;53.304;9.816;2023-06-26T03:56:37;24.40;86.90
546;DHT22;259;53.304;9.816;2023-06-26T03:59:03;24.40;86.80
546;DHT22;259;53.304;9.816;2023-06-26T04:01:29;24.40;87.00
546;DHT22;259;53.304;9.816;2023-06-26T04:03:55;24.40;87.10
546;DHT22;259;53.304;9.816;2023-06-26T04:06:21;24.30;87.00
546;DHT22;259;53.304;9.816;2023-06-26T04:08:46;24.30;87.00
546;DHT22;259;53.304;9.816;2023-06-26T04:11:13;24.30;87.10
546;DHT22;259;53.304;9.816;2023-06-26T04:13:38;24.30;87.10
546;DHT22;259;53.304;9.816;2023-06-26T04:16:04;24.30;87.20
546;DHT22;259;53.304;9.816;2023-06-26T04:18:31;24.30;87.10
546;DHT22;259;53.304;9.816;2023-06-26T04:21:08;24.20;87.20
546;DHT22;259;53.304;9.816;2023-06-26T04:23:36;24.20;87.10
546;DHT22;259;53.304;9.816;2023-06-26T04:26:03;24.20;87.10
546;DHT22;259;53.304;9.816;2023-06-26T04:28:30;24.20;87.10
546;DHT22;259;53.304;9.816;2023-06-26T04:30:57;24.20;87.10
546;DHT22;259;53.304;9.816;2023-06-26T04:33:24;24.20;87.20
546;DHT22;259;53.304;9.816;2023-06-26T04:35:51;24.20;87.20
546;DHT22;259;53.304;9.816;2023-06-26T04:38:17;24.20;87.10
546;DHT22;259;53.304;9.816;2023-06-26T04:40:43;24.20;87.10
546;DHT22;259;53.304;9.816;2023-06-26T04:43:09;24.20;87.10
546;DHT22;259;53.304;9.816;2023-06-26T04:45:35;24.20;87.20
546;DHT22;259;53.304;9.816;2023-06-26T04:48:02;24.20;87.00
546;DHT22;259;53.304;9.816;2023-06-26T04:50:28;24.20;87.00
546;DHT22;259;53.304;9.816;2023-06-26T04:52:54;24.20;87.00
546;DHT22;259;53.304;9.816;2023-06-26T04:55:21;24.20;87.00
546;DHT22;259;53.304;9.816;2023-06-26T04:57:49;24.10;87.00
546;DHT22;259;53.304;9.816;2023-06-26T05:00:14;24.10;87.00
546;DHT22;259;53.304;9.816;2023-06-26T05:02:40;24.10;87.20
546;DHT22;259;53.304;9.816;2023-06-26T05:05:06;24.10;87.20
546;DHT22;259;53.304;9.816;2023-06-26T05:07:32;24.10;87.20
546;DHT22;259;53.304;9.816;2023-06-26T05:09:58;24.10;87.20
546;DHT22;259;53.304;9.816;2023-06-26T05:12:24;24.10;87.30
546;DHT22;259;53.304;9.816;2023-06-26T05:14:49;24.10;87.30
546;DHT22;259;53.304;9.816;2023-06-26T05:17:15;24.00;87.20
546;DHT22;259;53.304;9.816;2023-06-26T05:19:41;24.00;87.30
546;DHT22;259;53.304;9.816;2023-06-26T05:22:07;24.00;87.70
546;DHT22;259;53.304;9.816;2023-06-26T05:24:37;24.00;87.60
546;DHT22;259;53.304;9.816;2023-06-26T05:27:04;24.00;87.50
546;DHT22;259;53.304;9.816;2023-06-26T05:29:31;24.00;87.70
546;DHT22;259;53.304;9.816;2023-06-26T05:31:58;24.00;87.70
546;DHT22;259;53.304;9.816;2023-06-26T05:34:24;24.00;87.80
546;DHT22;259;53.304;9.816;2023-06-26T05:36:57;24.00;87.70
546;DHT22;259;53.304;9.816;2023-06-26T05:39:24;24.00;87.60
546;DHT22;259;53.304;9.816;2023-06-26T05:41:50;24.00;87.60
546;DHT22;259;53.304;9.816;2023-06-26T05:44:16;24.00;87.50
546;DHT22;259;53.304;9.816;2023-06-26T05:46:43;24.00;87.40
546;DHT22;259;53.304;9.816;2023-06-26T05:49:09;24.00;87.70
546;DHT22;259;53.304;9.816;2023-06-26T05:51:35;24.00;87.80
546;DHT22;259;53.304;9.816;2023-06-26T05:54:01;24.00;88.90
546;DHT22;259;53.304;9.816;2023-06-26T05:56:28;24.00;90.10
546;DHT22;259;53.304;9.816;2023-06-26T05:58:54;24.00;90.50
546;DHT22;259;53.304;9.816;2023-06-26T06:01:20;24.00;90.60
546;DHT22;259;53.304;9.816;2023-06-26T06:03:46;24.00;91.20
546;DHT22;259;53.304;9.816;2023-06-26T06:06:12;24.10;91.60
546;DHT22;259;53.304;9.816;2023-06-26T06:08:38;24.10;91.70
546;DHT22;259;53.304;9.816;2023-06-26T06:11:03;24.10;91.90
546;DHT22;259;53.304;9.816;2023-06-26T06:13:29;24.10;92.00
546;DHT22;259;53.304;9.816;2023-06-26T06:15:55;24.10;92.10
546;DHT22;259;53.304;9.816;2023-06-26T06:18:21;24.10;92.40
546;DHT22;259;53.304;9.816;2023-06-26T06:20:47;24.10;92.50
546;DHT22;259;53.304;9.816;2023-06-26T06:23:13;24.10;92.50
546;DHT22;259;53.304;9.816;2023-06-26T06:25:39;24.10;92.50
546;DHT22;259;53.304;9.816;2023-06-26T06:28:05;24.10;92.60
546;DHT22;259;53.304;9.816;2023-06-26T06:30:31;24.10;92.40
546;DHT22;259;53.304;9.816;2023-06-26T06:32:57;24.10;92.50
546;DHT22;259;53.304;9.816;2023-06-26T06:35:23;24.10;92.30
546;DHT22;259;53.304;9.816;2023-06-26T06:37:49;24.10;92.20
546;DHT22;259;53.304;9.816;2023-06-26T06:40:15;24.10;92.20
546;DHT22;259;53.304;9.816;2023-06-26T06:42:41;24.10;92.50
546;DHT22;259;53.304;9.816;2023-06-26T06:45:07;24.10;92.50
546;DHT22;259;53.304;9.816;2023-06-26T06:47:33;24.10;92.30
546;DHT22;259;53.304;9.816;2023-06-26T06:50:00;24.10;92.10
546;DHT22;259;53.304;9.816;2023-06-26T06:52:39;24.10;91.90
546;DHT22;259;53.304;9.816;2023-06-26T06:55:06;24.10;91.70
546;DHT22;259;53.304;9.816;2023-06-26T06:57:38;24.20;91.70
546;DHT22;259;53.304;9.816;2023-06-26T07:02:39;24.20;91.40
546;DHT22;259;53.304;9.816;2023-06-26T07:05:07;24.10;91.30
546;DHT22;259;53.304;9.816;2023-06-26T07:07:33;24.20;91.30
546;DHT22;259;53.304;9.816;2023-06-26T07:10:02;24.10;91.20
546;DHT22;259;53.304;9.816;2023-06-26T07:12:30;24.20;91.30
546;DHT22;259;53.304;9.816;2023-06-26T07:14:56;24.10;91.20
546;DHT22;259;53.304;9.816;2023-06-26T07:17:22;24.20;91.20
546;DHT22;259;53.304;9.816;2023-06-26T07:19:49;24.20;91.20
546;DHT22;259;53.304;9.816;2023-06-26T07:22:15;24.20;91.00
546;DHT22;259;53.304;9.816;2023-06-26T07:24:41;24.20;90.90
546;DHT22;259;53.304;9.816;2023-06-26T07:27:07;24.20;91.00
546;DHT22;259;53.304;9.816;2023-06-26T07:29:33;24.20;90.90
546;DHT22;259;53.304;9.816;2023-06-26T07:31:58;24.20;90.90
546;DHT22;259;53.304;9.816;2023-06-26T07:34:24;24.20;90.90
546;DHT22;259;53.304;9.816;2023-06-26T07:36:50;24.20;90.90
546;DHT22;259;53.304;9.816;2023-06-26T07:39:15;24.20;90.80
546;DHT22;259;53.304;9.816;2023-06-26T07:41:41;24.20;90.80
546;DHT22;259;53.304;9.816;2023-06-26T07:44:07;24.20;90.80
546;DHT22;259;53.304;9.816;2023-06-26T07:46:32;24.20;90.80
546;DHT22;259;53.304;9.816;2023-06-26T07:48:58;24.20;90.70
546;DHT22;259;53.304;9.816;2023-06-26T07:51:24;24.20;90.50
546;DHT22;259;53.304;9.816;2023-06-26T07:53:49;24.10;90.40
546;DHT22;259;53.304;9.816;2023-06-26T07:56:15;24.30;90.50
546;DHT22;259;53.304;9.816;2023-06-26T07:58:41;24.30;90.40
546;DHT22;259;53.304;9.816;2023-06-26T08:01:08;24.30;90.30
546;DHT22;259;53.304;9.816;2023-06-26T08:03:33;24.30;90.30
546;DHT22;259;53.304;9.816;2023-06-26T08:05:59;24.20;90.70
546;DHT22;259;53.304;9.816;2023-06-26T08:08:25;24.30;90.70
546;DHT22;259;53.304;9.816;2023-06-26T08:10:50;24.30;90.50
546;DHT22;259;53.304;9.816;2023-06-26T08:13:16;24.40;90.70
546;DHT22;259;53.304;9.816;2023-06-26T08:15:42;24.40;90.70
546;DHT22;259;53.304;9.816;2023-06-26T08:18:07;24.40;90.80
546;DHT22;259;53.304;9.816;2023-06-26T08:20:33;24.40;91.10
546;DHT22;259;53.304;9.816;2023-06-26T08:23:01;24.50;91.10
546;DHT22;259;53.304;9.816;2023-06-26T08:25:26;24.50;91.10
546;DHT22;259;53.304;9.816;2023-06-26T08:27:52;24.50;91.10
546;DHT22;259;53.304;9.816;2023-06-26T08:30:19;24.50;91.20
546;DHT22;259;53.304;9.816;2023-06-26T08:32:45;24.50;91.40
546;DHT22;259;53.304;9.816;2023-06-26T08:35:10;24.60;91.30
546;DHT22;259;53.304;9.816;2023-06-26T08:37:36;24.60;91.40
546;DHT22;259;53.304;9.816;2023-06-26T08:40:02;24.60;91.60
546;DHT22;259;53.304;9.816;2023-06-26T08:42:29;24.60;91.50
546;DHT22;259;53.304;9.816;2023-06-26T08:44:55;24.60;91.30
546;DHT22;259;53.304;9.816;2023-06-26T08:47:21;24.60;91.20
546;DHT22;259;53.304;9.816;2023-06-26T08:52:40;24.70;91.30
546;DHT22;259;53.304;9.816;2023-06-26T08:55:12;24.70;91.10
546;DHT22;259;53.304;9.816;2023-06-26T08:57:40;24.70;91.10
546;DHT22;259;53.304;9.816;2023-06-26T09:00:06;24.70;91.00
546;DHT22;259;53.304;9.816;2023-06-26T09:02:37;24.70;90.90
546;DHT22;259;53.304;9.816;2023-06-26T09:05:03;24.80;90.90
546;DHT22;259;53.304;9.816;2023-06-26T09:07:29;24.80;90.90
546;DHT22;259;53.304;9.816;2023-06-26T09:09:55;24.80;91.10
546;DHT22;259;53.304;9.816;2023-06-26T09:12:21;24.80;90.90
546;DHT22;259;53.304;9.816;2023-06-26T09:14:47;24.80;90.80
546;DHT22;259;53.304;9.816;2023-06-26T09:17:13;24.90;90.80
546;DHT22;259;53.304;9.816;2023-06-26T09:19:39;24.80;90.70
546;DHT22;259;53.304;9.816;2023-06-26T09:22:11;24.90;90.70
546;DHT22;259;53.304;9.816;2023-06-26T09:24:37;24.90;90.90
546;DHT22;259;53.304;9.816;2023-06-26T09:27:04;24.90;90.90
546;DHT22;259;53.304;9.816;2023-06-26T09:29:30;24.90;90.80
546;DHT22;259;53.304;9.816;2023-06-26T09:31:56;24.90;90.80
546;DHT22;259;53.304;9.816;2023-06-26T09:34:22;24.90;90.80
546;DHT22;259;53.304;9.816;2023-06-26T09:36:55;24.80;90.80
546;DHT22;259;53.304;9.816;2023-06-26T09:39:21;24.90;90.80
546;DHT22;259;53.304;9.816;2023-06-26T09:41:47;24.90;91.40
546;DHT22;259;53.304;9.816;2023-06-26T09:44:14;24.80;91.10
546;DHT22;259;53.304;9.816;2023-06-26T09:46:40;24.80;91.00
546;DHT22;259;53.304;9.816;2023-06-26T09:49:12;24.80;91.00
546;DHT22;259;53.304;9.816;2023-06-26T09:51:39;24.80;91.00
546;DHT22;259;53.304;9.816;2023-06-26T09:54:06;24.80;91.00
546;DHT22;259;53.304;9.816;2023-06-26T09:56:33;24.80;91.00
546;DHT22;259;53.304;9.816;2023-06-26T09:59:02;24.80;91.00
546;DHT22;259;53.304;9.816;2023-06-26T10:01:31;24.70;92.20
546;DHT22;259;53.304;9.816;2023-06-26T10:03:57;24.80;94.50
546;DHT22;259;53.304;9.816;2023-06-26T10:06:43;24.80;94.00
546;DHT22;259;53.304;9.816;2023-06-26T10:09:13;24.80;94.20
546;DHT22;259;53.304;9.816;2023-06-26T10:11:54;24.80;94.30
546;DHT22;259;53.304;9.816;2023-06-26T10:14:26;24.80;94.00
546;DHT22;259;53.304;9.816;2023-06-26T10:16:52;24.80;93.80
546;DHT22;259;53.304;9.816;2023-06-26T10:19:24;24.80;93.90
546;DHT22;259;53.304;9.816;2023-06-26T10:21:55;24.90;94.00
546;DHT22;259;53.304;9.816;2023-06-26T10:24:22;24.90;93.80
546;DHT22;259;53.304;9.816;2023-06-26T10:26:51;24.80;93.80
546;DHT22;259;53.304;9.816;2023-06-26T10:29:30;24.90;93.80
546;DHT22;259;53.304;9.816;2023-06-26T10:31:58;24.90;93.90
546;DHT22;259;53.304;9.816;2023-06-26T10:34:25;24.80;94.00
546;DHT22;259;53.304;9.816;2023-06-26T10:37:03;24.90;93.90
546;DHT22;259;53.304;9.816;2023-06-26T10:39:45;24.90;93.90
546;DHT22;259;53.304;9.816;2023-06-26T10:42:19;24.90;94.00
546;DHT22;259;53.304;9.816;2023-06-26T10:44:47;24.90;94.10
546;DHT22;259;53.304;9.816;2023-06-26T10:47:33;24.90;94.00
546;DHT22;259;53.304;9.816;2023-06-26T10:50:28;25.00;94.20
546;DHT22;259;53.304;9.816;2023-06-26T10:58:32;25.00;94.20
546;DHT22;259;53.304;9.816;2023-06-26T11:01:21;25.00;94.40
546;DHT22;259;53.304;9.816;2023-06-26T11:03:49;25.00;94.70
546;DHT22;259;53.304;9.816;2023-06-26T11:06:29;25.00;95.10
546;DHT22;259;53.304;9.816;2023-06-26T11:09:06;25.00;95.70
546;DHT22;259;53.304;9.816;2023-06-26T11:14:22;25.00;95.80
546;DHT22;259;53.304;9.816;2023-06-26T11:16:49;25.00;95.70
546;DHT22;259;53.304;9.816;2023-06-26T11:19:17;25.00;95.60
546;DHT22;259;53.304;9.816;2023-06-26T11:21:43;25.00;95.40
546;DHT22;259;53.304;9.816;2023-06-26T11:24:11;24.90;95.30
546;DHT22;259;53.304;9.816;2023-06-26T11:26:38;24.90;95.20
546;DHT22;259;53.304;9.816;2023-06-26T11:29:05;24.90;95.00
546;DHT22;259;53.304;9.816;2023-06-26T11:34:09;24.90;94.80
546;DHT22;259;53.304;9.816;2023-06-26T11:36:37;24.90;94.70
546;DHT22;259;53.304;9.816;2023-06-26T11:39:05;24.90;94.70
546;DHT22;259;53.304;9.816;2023-06-26T11:41:32;24.90;94.60
546;DHT22;259;53.304;9.816;2023-06-26T11:44:10;24.90;94.50
546;DHT22;259;53.304;9.816;2023-06-26T11:46:36;25.00;94.50
546;DHT22;259;53.304;9.816;2023-06-26T11:49:03;25.00;94.40
546;DHT22;259;53.304;9.816;2023-06-26T11:51:30;25.00;94.30
546;DHT22;259;53.304;9.816;2023-06-26T11:53:55;25.00;94.30
546;DHT22;259;53.304;9.816;2023-06-26T11:56:21;25.00;94.20
546;DHT22;259;53.304;9.816;2023-06-26T11:59:01;24.90;94.10
546;DHT22;259;53.304;9.816;2023-06-26T12:01:41;25.00;94.20
546;DHT22;259;53.304;9.816;2023-06-26T12:04:11;24.90;94.00
546;DHT22;259;53.304;9.816;2023-06-26T12:06:43;24.90;94.10
546;DHT22;259;53.304;9.816;2023-06-26T12:09:12;24.90;94.20
546;DHT22;259;53.304;9.816;2023-06-26T12:11:43;25.00;94.20
546;DHT22;259;53.304;9.816;2023-06-26T12:14:11;25.00;94.20
546;DHT22;259;53.304;9.816;2023-06-26T12:16:37;25.00;94.20
546;DHT22;259;53.304;9.816;2023-06-26T12:19:07;25.00;94.20
546;DHT22;259;53.304;9.816;2023-06-26T12:24:14;25.10;94.20
546;DHT22;259;53.304;9.816;2023-06-26T12:26:43;25.20;94.10
546;DHT22;259;53.304;9.816;2023-06-26T12:29:11;25.20;94.00
546;DHT22;259;53.304;9.816;2023-06-26T12:31:42;25.20;94.00
546;DHT22;259;53.304;9.816;2023-06-26T12:34:13;25.20;93.90
546;DHT22;259;53.304;9.816;2023-06-26T12:36:44;25.30;93.90
546;DHT22;259;53.304;9.816;2023-06-26T12:39:12;25.30;93.90
546;DHT22;259;53.304;9.816;2023-06-26T12:42:05;25.30;93.80
546;DHT22;259;53.304;9.816;2023-06-26T12:44:31;25.40;93.80
546;DHT22;259;53.304;9.816;2023-06-26T12:47:00;25.40;94.00
546;DHT22;259;53.304;9.816;2023-06-26T12:49:39;25.40;93.80
546;DHT22;259;53.304;9.816;2023-06-26T12:52:09;25.50;92.70
546;DHT22;259;53.304;9.816;2023-06-26T12:54:38;25.50;92.30
546;DHT22;259;53.304;9.816;2023-06-26T12:57:05;25.50;92.20
546;DHT22;259;53.304;9.816;2023-06-26T12:59:32;25.50;91.90
546;DHT22;259;53.304;9.816;2023-06-26T13:01:59;25.60;91.80
546;DHT22;259;53.304;9.816;2023-06-26T13:04:25;25.60;91.60
546;DHT22;259;53.304;9.816;2023-06-26T13:06:51;25.60;91.40
546;DHT22;259;53.304;9.816;2023-06-26T13:09:20;25.70;91.20
546;DHT22;259;53.304;9.816;2023-06-26T13:11:46;25.70;91.10
546;DHT22;259;53.304;9.816;2023-06-26T13:14:11;25.70;91.00
546;DHT22;259;53.304;9.816;2023-06-26T13:16:38;25.70;90.70
546;DHT22;259;53.304;9.816;2023-06-26T13:19:04;25.70;90.20
546;DHT22;259;53.304;9.816;2023-06-26T13:21:30;25.70;89.40
546;DHT22;259;53.304;9.816;2023-06-26T13:23:56;25.70;88.30
546;DHT22;259;53.304;9.816;2023-06-26T13:26:22;25.60;87.20
546;DHT22;259;53.304;9.816;2023-06-26T13:28:49;25.60;86.50
546;DHT22;259;53.304;9.816;2023-06-26T13:31:15;25.60;85.90
546;DHT22;259;53.304;9.816;2023-06-26T13:33:41;25.60;85.50
546;DHT22;259;53.304;9.816;2023-06-26T13:36:06;25.70;85.60
546;DHT22;259;53.304;9.816;2023-06-26T13:38:35;25.70;85.80
546;DHT22;259;53.304;9.816;2023-06-26T13:41:01;25.70;85.70
546;DHT22;259;53.304;9.816;2023-06-26T13:43:28;25.70;85.90
546;DHT22;259;53.304;9.816;2023-06-26T13:45:55;25.70;85.90
546;DHT22;259;53.304;9.816;2023-06-26T13:48:21;25.80;85.60
546;DHT22;259;53.304;9.816;2023-06-26T13:50:49;25.80;85.20
546;DHT22;259;53.304;9.816;2023-06-26T13:53:16;25.80;84.80
546;DHT22;259;53.304;9.816;2023-06-26T13:55:43;25.70;84.20
546;DHT22;259;53.304;9.816;2023-06-26T13:58:09;25.70;83.70
546;DHT22;259;53.304;9.816;2023-06-26T14:00:35;25.70;83.10
546;DHT22;259;53.304;9.816;2023-06-26T14:03:03;25.70;83.30
546;DHT22;259;53.304;9.816;2023-06-26T14:05:35;25.70;82.80
546;DHT22;259;53.304;9.816;2023-06-26T14:08:07;25.70;82.20
546;DHT22;259;53.304;9.816;2023-06-26T14:10:33;25.70;81.60
546;DHT22;259;53.304;9.816;2023-06-26T14:13:00;25.70;81.70
546;DHT22;259;53.304;9.816;2023-06-26T14:15:26;25.70;82.10
546;DHT22;259;53.304;9.816;2023-06-26T14:17:51;25.70;81.70
546;DHT22;259;53.304;9.816;2023-06-26T14:20:17;25.70;81.70
546;DHT22;259;53.304;9.816;2023-06-26T14:22:46;25.60;81.30
546;DHT22;259;53.304;9.816;2023-06-26T14:25:12;25.60;81.20
546;DHT22;259;53.304;9.816;2023-06-26T14:27:39;25.70;81.50
546;DHT22;259;53.304;9.816;2023-06-26T14:30:05;25.70;80.30
546;DHT22;259;53.304;9.816;2023-06-26T14:32:33;25.70;80.20
546;DHT22;259;53.304;9.816;2023-06-26T14:34:59;25.70;80.30
546;DHT22;259;53.304;9.816;2023-06-26T14:37:26;25.70;80.30
546;DHT22;259;53.304;9.816;2023-06-26T14:39:52;25.70;81.30
546;DHT22;259;53.304;9.816;2023-06-26T14:42:18;25.80;82.70
546;DHT22;259;53.304;9.816;2023-06-26T14:44:43;25.70;82.10
546;DHT22;259;53.304;9.816;2023-06-26T14:47:12;25.80;81.50
546;DHT22;259;53.304;9.816;2023-06-26T14:49:39;25.80;81.70
546;DHT22;259;53.304;9.816;2023-06-26T14:52:05;25.80;84.00
546;DHT22;259;53.304;9.816;2023-06-26T14:54:31;25.70;81.80
546;DHT22;259;53.304;9.816;2023-06-26T14:56:58;25.80;81.00
546;DHT22;259;53.304;9.816;2023-06-26T14:59:23;25.70;80.90
546;DHT22;259;53.304;9.816;2023-06-26T15:01:49;25.70;80.50
546;DHT22;259;53.304;9.816;2023-06-26T15:04:15;25.70;79.60
546;DHT22;259;53.304;9.816;2023-06-26T15:06:40;25.70;79.70
546;DHT22;259;53.304;9.816;2023-06-26T15:09:06;25.70;79.50
546;DHT22;259;53.304;9.816;2023-06-26T15:11:32;25.60;79.10
546;DHT22;259;53.304;9.816;2023-06-26T15:13:57;25.70;78.90
546;DHT22;259;53.304;9.816;2023-06-26T15:16:23;25.60;78.00
546;DHT22;259;53.304;9.816;2023-06-26T15:18:49;25.70;78.00
546;DHT22;259;53.304;9.816;2023-06-26T15:21:14;25.60;77.20
546;DHT22;259;53.304;9.816;2023-06-26T15:23:40;25.60;76.60
546;DHT22;259;53.304;9.816;2023-06-26T15:26:06;25.60;76.50
546;DHT22;259;53.304;9.816;2023-06-26T15:28:31;25.60;76.50
546;DHT22;259;53.304;9.816;2023-06-26T15:30:58;25.60;76.10
546;DHT22;259;53.304;9.816;2023-06-26T15:33:24;25.60;76.00
546;DHT22;259;53.304;9.816;2023-06-26T15:35:50;25.60;75.90
546;DHT22;259;53.304;9.816;2023-06-26T15:38:15;25.60;75.80
546;DHT22;259;53.304;9.816;2023-06-26T15:40:41;25.60;75.80
546;DHT22;259;53.304;9.816;2023-06-26T15:43:07;25.60;76.20
546;DHT22;259;53.304;9.816;2023-06-26T15:45:32;25.50;75.50
546;DHT22;259;53.304;9.816;2023-06-26T15:47:58;25.50;74.40
546;DHT22;259;53.304;9.816;2023-06-26T15:50:24;25.50;74.00
546;DHT22;259;53.304;9.816;2023-06-26T15:52:50;25.50;73.80
546;DHT22;259;53.304;9.816;2023-06-26T15:55:16;25.40;73.30
546;DHT22;259;53.304;9.816;2023-06-26T15:57:41;25.40;72.80
546;DHT22;259;53.304;9.816;2023-06-26T16:00:08;25.40;73.10
546;DHT22;259;53.304;9.816;2023-06-26T16:02:36;25.30;72.40
546;DHT22;259;53.304;9.816;2023-06-26T16:05:02;25.20;72.80
546;DHT22;259;53.304;9.816;2023-06-26T16:07:28;25.20;73.20
546;DHT22;259;53.304;9.816;2023-06-26T16:09:57;25.10;72.40
546;DHT22;259;53.304;9.816;2023-06-26T16:12:23;25.20;72.20
546;DHT22;259;53.304;9.816;2023-06-26T16:14:49;25.20;72.00
546;DHT22;259;53.304;9.816;2023-06-26T16:17:14;25.20;72.50
546;DHT22;259;53.304;9.816;2023-06-26T16:19:40;25.10;72.50
546;DHT22;259;53.304;9.816;2023-06-26T16:22:06;25.20;72.80
546;DHT22;259;53.304;9.816;2023-06-26T16:24:34;25.10;72.80
546;DHT22;259;53.304;9.816;2023-06-26T16:27:00;25.10;73.00
546;DHT22;259;53.304;9.816;2023-06-26T16:29:26;25.20;73.30
546;DHT22;259;53.304;9.816;2023-06-26T16:31:54;25.20;73.40
546;DHT22;259;53.304;9.816;2023-06-26T16:34:21;25.10;73.60
546;DHT22;259;53.304;9.816;2023-06-26T16:36:47;25.10;73.80
546;DHT22;259;53.304;9.816;2023-06-26T16:39:17;25.10;74.10
546;DHT22;259;53.304;9.816;2023-06-26T16:41:46;25.10;74.20
546;DHT22;259;53.304;9.816;2023-06-26T16:44:14;25.10;74.40
546;DHT22;259;53.304;9.816;2023-06-26T16:46:40;25.10;74.50
546;DHT22;259;53.304;9.816;2023-06-26T16:49:05;25.10;74.70
546;DHT22;259;53.304;9.816;2023-06-26T16:51:31;25.10;74.80
546;DHT22;259;53.304;9.816;2023-06-26T16:53:57;25.10;75.00
546;DHT22;259;53.304;9.816;2023-06-26T16:56:22;25.10;75.10
546;DHT22;259;53.304;9.816;2023-06-26T16:58:49;25.10;75.10